Time;durP1;ratioP1;P1;durP2;ratioP2;P2;SDS_P1;SDS_P2;PMS_P1;PMS_P2;Temp;Humidity;BMP_temperature;BMP_pressure;BME280_temperature;BME280_humidity;BME280_pressure;Samples;Min_cycle;Max_cycle;Signal;HPM_P1;HPM_P2
2023/10/22 00:01:16;;;;;;;3.75;1.60;;;12.10;99.90;;;;;;4995619;28;20124;-76
2023/10/22 00:04:03;;;;;;;5.88;1.55;;;12.10;99.90;;;;;;4986348;28;20034;-75
2023/10/22 00:06:49;;;;;;;5.35;1.40;;;12.10;99.90;;;;;;4981851;28;20038;-76
2023/10/22 00:09:35;;;;;;;5.60;1.25;;;12.10;99.90;;;;;;4991157;28;20057;-75
2023/10/22 00:12:21;;;;;;;5.65;1.10;;;12.10;99.90;;;;;;4965596;28;20042;-75
2023/10/22 00:15:08;;;;;;;6.05;1.08;;;12.10;99.90;;;;;;4970253;28;20484;-76
2023/10/22 00:17:54;;;;;;;3.03;1.55;;;12.10;99.90;;;;;;4996683;28;20161;-75
2023/10/22 00:20:41;;;;;;;3.47;1.20;;;12.10;99.90;;;;;;4968910;28;20119;-75
2023/10/22 00:23:27;;;;;;;3.35;1.20;;;12.10;99.90;;;;;;4995895;28;20042;-75
2023/10/22 00:26:14;;;;;;;3.97;1.30;;;12.10;99.90;;;;;;4989619;28;20042;-76
2023/10/22 00:29:00;;;;;;;4.28;1.25;;;12.10;99.90;;;;;;4981565;28;20121;-76
2023/10/22 00:31:46;;;;;;;4.20;1.25;;;12.10;99.90;;;;;;4981636;28;20069;-75
2023/10/22 00:34:32;;;;;;;3.50;1.10;;;12.10;99.90;;;;;;4982882;28;20119;-75
2023/10/22 00:37:18;;;;;;;4.47;1.90;;;12.10;99.90;;;;;;4995361;28;20038;-75
2023/10/22 00:40:05;;;;;;;4.43;1.55;;;12.00;99.90;;;;;;4982678;28;20069;-75
2023/10/22 00:42:54;;;;;;;3.15;1.33;;;12.00;99.90;;;;;;4978993;28;20042;-75
2023/10/22 00:45:40;;;;;;;4.25;1.60;;;12.00;99.90;;;;;;4994245;28;20038;-75
2023/10/22 00:48:26;;;;;;;3.17;1.40;;;11.90;99.90;;;;;;4962247;28;20335;-75
2023/10/22 00:51:12;;;;;;;5.10;1.40;;;11.90;99.90;;;;;;4993166;28;20042;-75
2023/10/22 00:53:58;;;;;;;2.90;1.50;;;11.90;99.90;;;;;;4981585;28;20098;-75
2023/10/22 00:56:46;;;;;;;4.40;1.50;;;11.80;99.90;;;;;;4980817;28;20042;-75
2023/10/22 00:59:32;;;;;;;5.18;1.60;;;11.90;99.90;;;;;;4969110;28;20467;-75
2023/10/22 01:02:23;;;;;;;6.37;1.53;;;11.80;99.90;;;;;;4995322;28;20066;-75
2023/10/22 01:05:08;;;;;;;5.75;1.20;;;11.80;99.90;;;;;;4981928;28;20281;-75
2023/10/22 01:07:54;;;;;;;4.30;1.30;;;11.80;99.90;;;;;;4980409;28;20479;-75
2023/10/22 01:10:40;;;;;;;5.47;1.63;;;11.80;99.90;;;;;;4961040;28;20053;-75
2023/10/22 01:13:26;;;;;;;5.40;1.30;;;11.80;99.90;;;;;;4980110;28;20042;-74
2023/10/22 01:16:12;;;;;;;8.85;1.90;;;11.80;99.90;;;;;;4967270;28;20498;-78
2023/10/22 01:18:58;;;;;;;5.68;1.50;;;11.70;99.90;;;;;;4989883;28;20035;-77
2023/10/22 01:21:44;;;;;;;5.13;1.60;;;11.70;99.90;;;;;;4976041;28;20046;-78
2023/10/22 01:24:33;;;;;;;3.88;1.20;;;11.70;99.90;;;;;;4973165;28;20714;-77
2023/10/22 01:27:19;;;;;;;4.47;1.30;;;11.70;99.90;;;;;;4980521;28;20085;-78
2023/10/22 01:30:06;;;;;;;6.05;1.55;;;11.60;99.90;;;;;;4994668;28;20042;-77
2023/10/22 01:32:52;;;;;;;6.40;1.58;;;11.60;99.90;;;;;;5009252;28;20053;-77
2023/10/22 01:35:38;;;;;;;5.32;1.48;;;11.50;99.90;;;;;;4994797;28;20045;-77
2023/10/22 01:38:24;;;;;;;3.22;1.45;;;11.50;99.90;;;;;;4988862;28;20070;-77
2023/10/22 01:41:10;;;;;;;4.03;1.40;;;11.60;99.90;;;;;;4955279;28;20059;-78
2023/10/22 01:43:58;;;;;;;5.55;1.50;;;11.50;99.90;;;;;;4960645;28;20039;-78
2023/10/22 01:46:45;;;;;;;2.83;1.30;;;11.50;99.90;;;;;;4975568;28;20043;-78
2023/10/22 01:49:31;;;;;;;5.63;1.52;;;11.50;99.90;;;;;;4930469;28;20047;-78
2023/10/22 01:52:17;;;;;;;3.53;1.50;;;11.40;99.90;;;;;;4954096;29;20071;-78
2023/10/22 01:55:03;;;;;;;3.78;1.10;;;11.40;99.90;;;;;;4954714;29;20047;-78
2023/10/22 01:57:49;;;;;;;5.97;1.10;;;11.50;99.90;;;;;;4946801;28;20038;-77
2023/10/22 02:00:35;;;;;;;4.45;1.02;;;11.50;99.90;;;;;;4947464;28;20058;-78
2023/10/22 02:03:21;;;;;;;4.82;1.52;;;11.50;99.90;;;;;;4947111;28;20057;-78
2023/10/22 02:06:13;;;;;;;3.95;1.13;;;11.50;99.90;;;;;;4947956;28;20156;-78
2023/10/22 02:09:00;;;;;;;5.40;1.30;;;11.50;99.90;;;;;;4947172;28;20069;-77
2023/10/22 02:11:46;;;;;;;3.25;1.20;;;11.50;99.90;;;;;;4960461;28;20383;-77
2023/10/22 02:14:33;;;;;;;4.72;1.08;;;11.50;99.90;;;;;;4960008;28;20494;-77
2023/10/22 02:17:19;;;;;;;6.53;1.93;;;11.50;99.90;;;;;;4960060;28;20049;-77
2023/10/22 02:20:08;;;;;;;3.17;1.05;;;11.50;99.90;;;;;;4960328;28;20770;-77
2023/10/22 02:22:54;;;;;;;2.22;0.98;;;11.50;99.90;;;;;;4943095;28;20054;-77
2023/10/22 02:25:40;;;;;;;7.93;1.08;;;11.50;99.90;;;;;;4947817;28;20432;-77
2023/10/22 02:28:26;;;;;;;4.32;1.10;;;11.50;99.90;;;;;;4951990;28;20047;-77
2023/10/22 02:31:12;;;;;;;4.35;1.02;;;11.40;99.90;;;;;;4931381;29;20109;-77
2023/10/22 02:34:05;;;;;;;4.47;1.25;;;11.50;99.90;;;;;;4954697;28;20678;-77
2023/10/22 02:36:51;;;;;;;3.47;1.08;;;11.50;99.90;;;;;;4959511;28;20074;-77
2023/10/22 02:39:37;;;;;;;8.98;1.35;;;11.40;99.90;;;;;;4962905;28;20395;-77
2023/10/22 02:42:23;;;;;;;3.63;1.05;;;11.40;99.90;;;;;;4960806;28;20438;-77
2023/10/22 02:45:09;;;;;;;3.78;1.27;;;11.50;99.90;;;;;;4980563;28;20121;-78
2023/10/22 02:47:59;;;;;;;2.40;0.98;;;11.40;99.90;;;;;;4971949;28;20042;-77
2023/10/22 02:50:45;;;;;;;4.78;1.50;;;11.40;99.90;;;;;;4980189;28;20133;-77
2023/10/22 02:53:31;;;;;;;3.30;1.33;;;11.50;99.90;;;;;;4992370;28;20112;-78
2023/10/22 02:56:17;;;;;;;3.22;1.02;;;11.50;99.90;;;;;;4993913;28;20467;-77
2023/10/22 02:59:03;;;;;;;5.55;1.58;;;11.50;99.90;;;;;;4967701;28;20049;-78
2023/10/22 03:01:49;;;;;;;7.80;1.45;;;11.50;99.90;;;;;;4980798;28;20037;-77
2023/10/22 03:04:35;;;;;;;2.60;0.98;;;11.50;99.90;;;;;;4993112;28;20051;-77
2023/10/22 03:07:23;;;;;;;3.17;1.00;;;11.50;99.90;;;;;;4994387;28;20042;-77
2023/10/22 03:10:09;;;;;;;5.43;1.00;;;11.50;99.90;;;;;;4992616;28;20043;-77
2023/10/22 03:12:57;;;;;;;3.40;1.20;;;11.50;99.90;;;;;;4994209;28;20442;-77
2023/10/22 03:15:43;;;;;;;5.00;1.20;;;11.40;99.90;;;;;;4994650;28;20072;-76
2023/10/22 03:18:29;;;;;;;4.10;1.10;;;11.50;99.90;;;;;;4976156;28;20081;-75
2023/10/22 03:21:17;;;;;;;2.88;1.02;;;11.40;99.90;;;;;;4986132;28;20046;-74
2023/10/22 03:24:03;;;;;;;3.80;1.27;;;11.40;99.90;;;;;;4966925;28;20035;-75
2023/10/22 03:26:49;;;;;;;5.00;1.48;;;11.50;99.90;;;;;;4964347;28;20065;-75
2023/10/22 03:29:35;;;;;;;3.60;1.20;;;11.50;99.90;;;;;;4992210;28;20030;-76
2023/10/22 03:32:21;;;;;;;2.78;1.15;;;11.40;99.90;;;;;;4972554;28;20080;-75
2023/10/22 03:35:09;;;;;;;4.72;1.40;;;11.40;99.90;;;;;;4982848;28;20062;-75
2023/10/22 03:37:55;;;;;;;4.07;1.13;;;11.40;99.90;;;;;;4983426;28;20444;-75
2023/10/22 03:40:41;;;;;;;3.05;1.38;;;11.40;99.90;;;;;;4988257;28;20046;-75
2023/10/22 03:43:28;;;;;;;4.97;1.10;;;11.40;99.90;;;;;;4987340;28;20050;-75
2023/10/22 03:46:14;;;;;;;4.75;1.17;;;11.40;99.90;;;;;;4971308;28;20034;-76
2023/10/22 03:49:00;;;;;;;2.88;1.02;;;11.40;99.90;;;;;;4964280;28;20097;-75
2023/10/22 03:51:45;;;;;;;4.63;0.90;;;11.40;99.90;;;;;;4991169;28;20034;-77
2023/10/22 03:54:31;;;;;;;4.03;1.60;;;11.40;99.90;;;;;;4966840;28;20369;-77
2023/10/22 03:57:18;;;;;;;5.97;2.50;;;11.40;99.90;;;;;;4992001;28;20085;-77
2023/10/22 04:00:07;;;;;;;4.57;1.35;;;11.40;99.90;;;;;;4960607;28;20063;-77
2023/10/22 04:02:53;;;;;;;1.83;0.77;;;11.40;99.90;;;;;;5000783;28;20124;-78
2023/10/22 04:05:39;;;;;;;5.43;1.20;;;11.40;99.90;;;;;;4982889;28;20459;-77
2023/10/22 04:08:25;;;;;;;3.03;1.20;;;11.40;99.90;;;;;;4952387;28;20054;-77
2023/10/22 04:11:11;;;;;;;2.63;1.00;;;11.40;99.90;;;;;;5006589;28;20041;-77
2023/10/22 04:13:57;;;;;;;7.13;1.13;;;11.40;99.90;;;;;;4992948;28;20795;-77
2023/10/22 04:16:43;;;;;;;3.15;0.90;;;11.40;99.90;;;;;;4964143;28;20039;-77
2023/10/22 04:19:29;;;;;;;5.38;1.08;;;11.40;99.90;;;;;;4964003;28;20053;-77
2023/10/22 04:22:15;;;;;;;2.90;0.90;;;11.40;99.90;;;;;;4992474;28;20050;-77
2023/10/22 04:25:01;;;;;;;3.45;1.08;;;11.40;99.90;;;;;;4979289;28;20050;-77
2023/10/22 04:27:48;;;;;;;8.23;1.77;;;11.40;99.90;;;;;;4996959;28;20054;-77
2023/10/22 04:30:40;;;;;;;3.85;1.20;;;11.40;99.90;;;;;;4977037;28;20121;-77
2023/10/22 04:33:26;;;;;;;5.40;1.27;;;11.50;99.90;;;;;;4994333;28;20054;-76
2023/10/22 04:36:16;;;;;;;8.00;1.20;;;11.50;99.90;;;;;;4996656;28;20359;-77
2023/10/22 04:39:02;;;;;;;5.90;0.85;;;11.50;99.90;;;;;;4960147;28;20065;-77
2023/10/22 04:41:48;;;;;;;4.55;1.35;;;11.50;99.90;;;;;;4986419;28;20048;-77
2023/10/22 04:44:34;;;;;;;6.28;1.13;;;11.50;99.90;;;;;;4996054;28;20038;-77
2023/10/22 04:47:23;;;;;;;3.72;0.90;;;11.50;99.90;;;;;;4994953;28;20038;-77
2023/10/22 04:50:09;;;;;;;5.63;1.40;;;11.50;99.90;;;;;;4993012;28;20043;-77
2023/10/22 04:52:57;;;;;;;4.47;0.98;;;11.50;99.90;;;;;;4961054;28;20050;-77
2023/10/22 04:55:43;;;;;;;5.72;1.00;;;11.50;99.90;;;;;;4983021;28;20069;-76
2023/10/22 04:58:30;;;;;;;5.68;1.17;;;11.50;99.90;;;;;;4995471;28;20117;-77
2023/10/22 05:01:16;;;;;;;4.22;1.10;;;11.60;99.90;;;;;;4968397;28;20034;-77
2023/10/22 05:04:04;;;;;;;2.75;0.77;;;11.60;99.90;;;;;;4998767;28;20073;-77
2023/10/22 05:06:53;;;;;;;3.65;0.98;;;11.60;99.90;;;;;;4994151;28;20053;-77
2023/10/22 05:09:39;;;;;;;2.85;0.98;;;11.60;99.90;;;;;;4996031;28;20525;-77
2023/10/22 05:12:26;;;;;;;2.97;1.02;;;11.60;99.90;;;;;;4983782;28;20054;-77
2023/10/22 05:15:14;;;;;;;6.83;1.37;;;11.60;99.90;;;;;;4964789;28;20483;-77
2023/10/22 05:18:02;;;;;;;6.47;1.20;;;11.60;99.90;;;;;;4969312;28;20379;-77
2023/10/22 05:20:51;;;;;;;4.10;1.02;;;11.60;99.90;;;;;;4980228;28;20302;-77
2023/10/22 05:23:37;;;;;;;7.97;1.35;;;11.60;99.90;;;;;;4986116;28;20042;-77
2023/10/22 05:26:23;;;;;;;4.88;1.00;;;11.60;99.90;;;;;;4979734;28;20049;-76
2023/10/22 05:29:09;;;;;;;4.72;1.00;;;11.60;99.90;;;;;;4979459;28;20075;-77
2023/10/22 05:31:55;;;;;;;5.85;1.42;;;11.60;99.90;;;;;;4958002;28;20108;-77
2023/10/22 05:34:42;;;;;;;3.80;1.20;;;11.60;99.90;;;;;;4961518;28;20038;-77
2023/10/22 05:37:28;;;;;;;5.15;1.63;;;11.60;99.90;;;;;;4961382;28;20035;-77
2023/10/22 05:40:15;;;;;;;5.53;1.23;;;11.70;99.90;;;;;;4960067;28;20387;-77
2023/10/22 05:43:01;;;;;;;4.78;1.10;;;11.60;99.90;;;;;;4990426;28;20037;-77
2023/10/22 05:45:56;;;;;;;5.05;0.90;;;11.60;99.90;;;;;;4981012;28;20050;-78
2023/10/22 05:48:42;;;;;;;6.70;1.10;;;11.70;99.90;;;;;;4972164;28;20156;-78
2023/10/22 05:51:28;;;;;;;3.95;1.00;;;11.70;99.90;;;;;;4985162;28;20070;-78
2023/10/22 05:54:14;;;;;;;5.90;1.20;;;11.60;99.90;;;;;;4977857;28;20100;-77
2023/10/22 05:57:00;;;;;;;7.50;1.00;;;11.60;99.90;;;;;;4992419;28;20073;-76
2023/10/22 05:59:46;;;;;;;5.43;1.33;;;11.60;99.90;;;;;;4978930;28;20030;-75
2023/10/22 06:02:34;;;;;;;4.57;1.77;;;11.60;99.90;;;;;;4992779;28;20042;-76
2023/10/22 06:05:20;;;;;;;8.57;1.00;;;11.60;99.90;;;;;;4975347;28;20121;-76
2023/10/22 06:08:06;;;;;;;9.60;1.75;;;11.60;99.90;;;;;;4962366;28;20382;-77
2023/10/22 06:10:52;;;;;;;5.40;1.02;;;11.60;99.90;;;;;;4964097;28;20046;-77
2023/10/22 06:13:39;;;;;;;9.40;1.30;;;11.60;99.90;;;;;;4988470;28;20085;-76
2023/10/22 06:16:25;;;;;;;5.18;1.30;;;11.60;99.90;;;;;;4988379;28;20038;-77
2023/10/22 06:19:12;;;;;;;6.65;1.33;;;11.70;99.90;;;;;;4973116;28;20113;-75
2023/10/22 06:21:58;;;;;;;3.85;1.27;;;11.70;99.90;;;;;;4980938;28;20069;-77
2023/10/22 06:24:44;;;;;;;4.57;1.00;;;11.70;99.90;;;;;;4974032;28;20113;-77
2023/10/22 06:27:30;;;;;;;4.22;1.35;;;11.80;99.90;;;;;;4979516;28;20091;-78
2023/10/22 06:30:22;;;;;;;4.25;0.95;;;11.90;99.90;;;;;;4968846;28;20053;-77
2023/10/22 06:33:08;;;;;;;5.95;1.30;;;11.90;99.90;;;;;;4992365;28;20455;-79
2023/10/22 06:35:54;;;;;;;7.75;1.52;;;11.70;99.90;;;;;;4979598;28;20113;-78
2023/10/22 06:38:40;;;;;;;1.90;0.93;;;11.80;99.90;;;;;;4979209;28;20053;-77
2023/10/22 06:41:27;;;;;;;4.90;1.00;;;11.80;99.90;;;;;;4983055;28;20053;-77
2023/10/22 06:44:13;;;;;;;2.80;1.30;;;11.80;99.90;;;;;;4985421;28;20038;-77
2023/10/22 06:46:59;;;;;;;3.58;1.15;;;11.90;99.90;;;;;;4979274;28;20038;-77
2023/10/22 06:49:45;;;;;;;5.07;1.27;;;11.90;99.90;;;;;;4987813;28;20038;-77
2023/10/22 06:52:34;;;;;;;5.13;1.20;;;12.00;99.90;;;;;;4978293;28;20123;-77
2023/10/22 06:55:20;;;;;;;4.78;0.90;;;11.90;99.90;;;;;;4981164;28;20049;-77
2023/10/22 06:58:08;;;;;;;4.45;0.93;;;12.00;99.90;;;;;;4988814;28;20046;-77
2023/10/22 07:01:09;;;;;;;5.60;0.98;;;12.00;99.90;;;;;;4973007;28;20511;-77
2023/10/22 07:03:55;;;;;;;5.82;1.40;;;12.10;99.90;;;;;;4976138;28;20513;-76
2023/10/22 07:06:41;;;;;;;5.10;1.17;;;12.10;99.90;;;;;;4977994;28;20129;-77
2023/10/22 07:09:27;;;;;;;6.25;1.75;;;12.20;99.90;;;;;;4972638;28;20083;-77
2023/10/22 07:12:13;;;;;;;3.72;1.25;;;12.20;99.90;;;;;;4993035;28;20062;-76
2023/10/22 07:14:59;;;;;;;5.03;1.00;;;12.30;99.90;;;;;;4983925;28;20074;-76
2023/10/22 07:17:47;;;;;;;3.05;0.90;;;12.30;99.90;;;;;;4977406;28;20608;-76
2023/10/22 07:20:34;;;;;;;5.47;1.13;;;12.40;99.90;;;;;;4983120;28;20596;-76
2023/10/22 07:23:20;;;;;;;5.85;1.63;;;12.40;99.90;;;;;;4972676;28;20456;-76
2023/10/22 07:26:06;;;;;;;5.78;1.10;;;12.50;99.90;;;;;;4974250;28;20050;-76
2023/10/22 07:28:52;;;;;;;6.57;1.23;;;12.50;99.90;;;;;;4991276;28;20042;-76
2023/10/22 07:31:39;;;;;;;5.10;1.15;;;12.50;99.90;;;;;;4989505;28;20811;-77
2023/10/22 07:34:25;;;;;;;2.55;1.00;;;12.60;99.90;;;;;;4973088;28;20133;-77
2023/10/22 07:37:11;;;;;;;4.07;0.93;;;12.60;99.90;;;;;;4973080;28;20452;-77
2023/10/22 07:40:05;;;;;;;3.80;1.00;;;12.70;99.90;;;;;;4983976;28;20130;-77
2023/10/22 07:42:52;;;;;;;6.25;1.35;;;12.70;99.90;;;;;;4973200;28;20105;-77
2023/10/22 07:45:38;;;;;;;5.30;1.23;;;12.70;99.90;;;;;;4991053;28;20061;-75
2023/10/22 07:48:24;;;;;;;5.22;1.30;;;12.80;99.90;;;;;;4973873;28;20162;-75
2023/10/22 07:51:11;;;;;;;5.53;1.27;;;12.80;99.90;;;;;;4983592;28;20062;-75
2023/10/22 07:53:57;;;;;;;3.80;1.30;;;12.80;99.90;;;;;;4980948;28;20038;-75
2023/10/22 07:56:43;;;;;;;4.05;1.00;;;12.90;99.90;;;;;;4971451;28;20129;-74
2023/10/22 07:59:29;;;;;;;5.78;1.08;;;12.90;99.90;;;;;;4965786;28;20112;-75
2023/10/22 08:02:16;;;;;;;6.82;1.15;;;13.00;99.90;;;;;;5010345;28;20779;-75
2023/10/22 08:05:02;;;;;;;8.38;1.20;;;13.00;99.90;;;;;;4983105;28;20048;-75
2023/10/22 08:07:48;;;;;;;7.70;1.92;;;13.10;99.90;;;;;;4984376;28;20078;-75
2023/10/22 08:10:35;;;;;;;5.05;1.45;;;13.10;99.90;;;;;;4965690;28;20046;-74
2023/10/22 08:13:22;;;;;;;5.35;1.30;;;13.10;99.90;;;;;;4974905;28;20406;-75
2023/10/22 08:16:08;;;;;;;4.20;1.20;;;13.10;99.90;;;;;;4990464;28;20080;-75
2023/10/22 08:18:54;;;;;;;4.15;1.05;;;13.10;99.90;;;;;;4979275;28;20039;-75
2023/10/22 08:21:40;;;;;;;4.53;1.08;;;13.10;99.90;;;;;;4968423;28;20103;-74
2023/10/22 08:24:26;;;;;;;3.17;0.90;;;13.10;99.90;;;;;;4978187;28;20128;-74
2023/10/22 08:27:12;;;;;;;4.03;1.23;;;13.20;99.90;;;;;;4992832;28;20038;-74
2023/10/22 08:29:58;;;;;;;5.07;1.50;;;13.20;99.90;;;;;;4989306;28;20045;-74
2023/10/22 08:32:46;;;;;;;7.38;1.30;;;13.20;99.90;;;;;;4974876;28;20057;-74
2023/10/22 08:35:32;;;;;;;5.15;1.40;;;13.30;99.90;;;;;;4996050;28;20483;-75
2023/10/22 08:38:18;;;;;;;5.95;1.60;;;13.30;99.90;;;;;;4963103;28;20053;-74
2023/10/22 08:41:06;;;;;;;8.27;1.52;;;13.30;99.90;;;;;;4962090;28;20076;-75
2023/10/22 08:43:52;;;;;;;6.13;1.40;;;13.30;99.90;;;;;;4970692;28;20049;-75
2023/10/22 08:46:38;;;;;;;4.32;1.60;;;13.40;99.90;;;;;;4983016;28;20105;-75
2023/10/22 08:49:24;;;;;;;4.25;1.38;;;13.40;99.90;;;;;;4951735;28;20568;-75
2023/10/22 08:52:10;;;;;;;6.88;1.45;;;13.40;99.90;;;;;;4977484;28;20050;-75
2023/10/22 08:54:56;;;;;;;5.65;1.38;;;13.40;99.90;;;;;;4979843;28;20034;-74
2023/10/22 08:57:42;;;;;;;6.93;1.38;;;13.30;99.90;;;;;;4969973;28;20049;-75
2023/10/22 09:00:28;;;;;;;5.38;1.92;;;13.40;99.90;;;;;;4973420;28;20038;-78
2023/10/22 09:03:15;;;;;;;5.72;1.40;;;13.40;99.90;;;;;;4965532;28;20112;-76
2023/10/22 09:06:03;;;;;;;4.45;1.00;;;13.50;99.90;;;;;;4968695;28;20108;-77
2023/10/22 09:08:49;;;;;;;4.25;1.80;;;13.40;99.90;;;;;;4970357;28;20375;-77
2023/10/22 09:11:36;;;;;;;4.88;1.33;;;13.50;99.90;;;;;;4975876;28;20078;-77
2023/10/22 09:14:22;;;;;;;3.17;1.10;;;13.50;99.90;;;;;;4970362;28;20042;-77
2023/10/22 09:17:17;;;;;;;6.68;1.40;;;13.60;99.90;;;;;;4965513;28;20054;-77
2023/10/22 09:20:21;;;;;;;4.07;1.25;;;13.60;99.90;;;;;;4966848;28;20042;-77
2023/10/22 09:23:20;;;;;;;5.18;1.00;;;13.60;99.90;;;;;;4990844;28;20467;-77
2023/10/22 09:26:07;;;;;;;4.78;1.27;;;13.80;99.90;;;;;;4960755;28;20383;-77
2023/10/22 09:29:07;;;;;;;7.80;1.17;;;13.80;99.90;;;;;;4970251;28;20125;-78
2023/10/22 09:31:56;;;;;;;4.03;1.50;;;14.00;99.90;;;;;;4934922;28;20057;-77
2023/10/22 09:34:43;;;;;;;4.53;1.70;;;14.10;99.90;;;;;;4966732;28;20034;-77
2023/10/22 09:37:29;;;;;;;8.07;1.83;;;14.20;99.90;;;;;;4973780;28;20375;-78
2023/10/22 09:40:21;;;;;;;5.20;1.60;;;14.20;99.90;;;;;;4978848;28;20062;-78
2023/10/22 09:43:08;;;;;;;5.65;2.05;;;14.20;99.90;;;;;;4983832;28;20517;-78
2023/10/22 09:45:54;;;;;;;6.75;1.70;;;14.20;99.90;;;;;;4978759;28;20038;-78
2023/10/22 09:48:42;;;;;;;4.07;1.50;;;14.20;99.90;;;;;;4980168;28;20540;-78
2023/10/22 09:51:30;;;;;;;4.27;1.87;;;14.10;99.90;;;;;;4985168;28;20050;-77
2023/10/22 09:54:16;;;;;;;5.10;1.48;;;14.10;99.90;;;;;;4969649;28;20038;-78
2023/10/22 09:57:11;;;;;;;4.93;1.52;;;14.00;99.90;;;;;;4953122;28;20038;-79
2023/10/22 10:00:08;;;;;;;4.03;1.10;;;14.00;99.90;;;;;;4991755;28;20089;-78
2023/10/22 10:02:54;;;;;;;4.85;1.75;;;14.00;99.90;;;;;;4991221;28;20057;-77
2023/10/22 10:05:40;;;;;;;3.47;1.23;;;14.00;99.90;;;;;;4985508;28;20589;-78
2023/10/22 10:08:26;;;;;;;7.18;1.35;;;14.00;99.90;;;;;;4974001;28;20665;-77
2023/10/22 10:11:12;;;;;;;5.13;1.25;;;14.00;99.90;;;;;;4978057;28;20053;-77
2023/10/22 10:13:58;;;;;;;4.25;1.52;;;14.00;99.90;;;;;;4993611;28;20042;-77
2023/10/22 10:16:44;;;;;;;4.13;1.30;;;14.00;99.90;;;;;;4964953;28;20074;-77
2023/10/22 10:19:30;;;;;;;3.95;1.23;;;13.90;99.90;;;;;;4979185;28;20037;-77
2023/10/22 10:22:35;;;;;;;4.78;1.35;;;14.00;99.90;;;;;;4977168;28;20517;-76
2023/10/22 10:25:29;;;;;;;4.15;1.30;;;14.00;99.90;;;;;;4992302;28;20046;-78
2023/10/22 10:28:15;;;;;;;4.10;1.17;;;14.00;99.90;;;;;;4980516;28;20133;-78
2023/10/22 10:31:27;;;;;;;4.80;1.65;;;14.10;99.90;;;;;;4980437;28;20390;-78
2023/10/22 10:34:34;;;;;;;4.28;1.35;;;14.00;99.90;;;;;;4980140;28;20057;-77
2023/10/22 10:37:20;;;;;;;3.55;1.10;;;14.10;99.90;;;;;;4952227;28;20074;-78
2023/10/22 10:40:08;;;;;;;6.10;1.48;;;14.10;99.90;;;;;;4988782;28;20050;-78
2023/10/22 10:42:54;;;;;;;3.77;0.90;;;14.00;99.90;;;;;;4992948;28;20049;-78
2023/10/22 10:46:00;;;;;;;2.78;1.00;;;14.00;99.90;;;;;;4989102;28;20428;-78
2023/10/22 10:48:49;;;;;;;3.35;1.08;;;14.00;99.90;;;;;;4990916;28;20121;-77
2023/10/22 10:51:37;;;;;;;9.95;1.40;;;14.10;99.90;;;;;;4981903;28;20043;-77
2023/10/22 10:54:23;;;;;;;3.95;1.02;;;14.20;99.90;;;;;;4979596;28;20050;-77
2023/10/22 10:57:10;;;;;;;4.85;1.23;;;14.30;99.90;;;;;;4969069;28;20039;-77
2023/10/22 10:59:57;;;;;;;4.32;1.33;;;14.40;99.90;;;;;;4992625;28;20132;-77
2023/10/22 11:02:44;;;;;;;4.30;1.00;;;14.50;99.90;;;;;;4964506;28;20047;-76
2023/10/22 11:05:42;;;;;;;5.07;1.27;;;14.40;99.90;;;;;;4986353;28;20734;-75
2023/10/22 11:08:30;;;;;;;4.53;1.33;;;14.40;99.90;;;;;;4961462;28;20038;-76
2023/10/22 11:11:16;;;;;;;3.20;1.00;;;14.90;99.90;;;;;;4971587;28;20502;-76
2023/10/22 11:14:12;;;;;;;3.05;1.00;;;15.50;99.90;;;;;;4980412;28;20085;-76
2023/10/22 11:16:58;;;;;;;5.07;1.30;;;16.10;99.90;;;;;;4985615;28;20478;-76
2023/10/22 11:19:44;;;;;;;5.05;1.35;;;16.60;99.90;;;;;;4977186;28;20101;-76
2023/10/22 11:22:31;;;;;;;4.07;0.90;;;16.90;99.90;;;;;;4975534;28;20049;-76
2023/10/22 11:25:19;;;;;;;4.13;1.10;;;16.60;99.90;;;;;;4987627;28;20444;-76
2023/10/22 11:28:10;;;;;;;5.22;1.00;;;16.70;99.90;;;;;;4978988;28;20070;-75
2023/10/22 11:30:57;;;;;;;4.03;0.80;;;17.10;99.90;;;;;;4989070;28;20042;-75
2023/10/22 11:33:44;;;;;;;5.97;1.25;;;17.30;99.90;;;;;;4997236;28;20049;-75
2023/10/22 11:36:30;;;;;;;3.60;0.90;;;17.10;99.90;;;;;;4974930;28;20041;-75
2023/10/22 11:39:19;;;;;;;4.38;1.30;;;16.90;99.90;;;;;;4983426;28;20057;-77
2023/10/22 11:42:07;;;;;;;3.83;0.95;;;16.30;99.90;;;;;;4997574;28;20112;-76
2023/10/22 11:44:53;;;;;;;3.63;0.90;;;16.30;99.90;;;;;;4992724;28;20101;-76
2023/10/22 11:47:39;;;;;;;3.25;0.93;;;16.00;99.90;;;;;;4972958;28;20057;-76
2023/10/22 11:50:34;;;;;;;3.97;0.65;;;16.10;99.90;;;;;;4982600;28;20050;-76
2023/10/22 11:53:20;;;;;;;2.42;0.80;;;15.80;99.90;;;;;;4995131;28;20116;-76
2023/10/22 11:56:06;;;;;;;2.05;0.70;;;15.90;99.90;;;;;;4985569;28;20120;-76
2023/10/22 11:58:55;;;;;;;7.97;1.17;;;16.10;99.90;;;;;;4978880;28;20820;-75
2023/10/22 12:01:41;;;;;;;4.80;1.27;;;16.00;99.90;;;;;;4980682;28;20065;-75
2023/10/22 12:04:27;;;;;;;2.90;0.95;;;16.00;99.90;;;;;;4987688;28;20035;-75
2023/10/22 12:07:13;;;;;;;2.92;0.63;;;15.80;99.90;;;;;;4998891;28;20841;-77
2023/10/22 12:09:59;;;;;;;2.55;0.85;;;15.50;99.90;;;;;;4968683;28;20066;-77
2023/10/22 12:12:46;;;;;;;3.78;0.70;;;15.30;99.90;;;;;;4996758;28;20046;-75
2023/10/22 12:15:34;;;;;;;2.40;0.70;;;15.20;99.90;;;;;;4968217;28;20124;-76
2023/10/22 12:18:23;;;;;;;;;;;15.10;99.90;;;;;;4969859;28;20450;-74
2023/10/22 12:21:10;;;;;;;2.08;0.88;;;15.10;99.90;;;;;;4969931;28;19909;-74
2023/10/22 12:23:57;;;;;;;5.47;1.02;;;15.00;99.90;;;;;;4965762;28;20034;-76
2023/10/22 12:26:44;;;;;;;3.28;0.85;;;15.00;99.90;;;;;;4968023;28;20057;-76
2023/10/22 12:29:31;;;;;;;4.17;1.17;;;15.00;99.90;;;;;;4970094;28;20145;-76
2023/10/22 12:32:18;;;;;;;2.55;1.00;;;15.20;99.90;;;;;;4994955;28;21320;-77
2023/10/22 12:35:07;;;;;;;2.83;0.85;;;15.20;99.90;;;;;;4975520;28;20482;-75
2023/10/22 12:37:54;;;;;;;2.50;0.82;;;15.10;99.90;;;;;;4981740;28;20367;-78
2023/10/22 12:40:42;;;;;;;3.58;0.70;;;15.20;99.90;;;;;;4967904;28;20152;-76
2023/10/22 12:43:29;;;;;;;2.83;0.85;;;15.20;99.90;;;;;;4988482;28;20043;-76
2023/10/22 12:46:15;;;;;;;2.60;0.80;;;15.40;99.90;;;;;;4944860;28;20050;-78
2023/10/22 12:49:02;;;;;;;3.40;0.80;;;15.90;99.90;;;;;;4956306;28;20046;-78
2023/10/22 12:51:48;;;;;;;3.33;0.63;;;16.00;99.90;;;;;;4955735;28;20489;-78
2023/10/22 12:54:35;;;;;;;2.67;0.80;;;15.80;99.90;;;;;;4962990;28;20042;-78
2023/10/22 12:57:21;;;;;;;2.97;0.90;;;16.40;99.90;;;;;;4955922;28;20034;-79
2023/10/22 13:00:12;;;;;;;4.00;1.05;;;17.10;99.90;;;;;;4967237;28;20042;-77
2023/10/22 13:02:58;;;;;;;2.67;0.98;;;16.60;99.90;;;;;;4971951;28;20379;-76
2023/10/22 13:05:44;;;;;;;2.95;0.80;;;16.30;99.90;;;;;;4968607;28;20042;-78
2023/10/22 13:08:31;;;;;;;3.95;0.82;;;15.90;99.90;;;;;;4958738;28;20376;-77
2023/10/22 13:11:20;;;;;;;3.58;0.90;;;15.50;99.90;;;;;;4975700;28;20074;-77
2023/10/22 13:14:08;;;;;;;1.75;0.73;;;15.40;99.90;;;;;;4955211;28;20509;-76
2023/10/22 13:16:54;;;;;;;3.35;0.90;;;15.30;99.90;;;;;;4960144;28;20039;-78
2023/10/22 13:19:40;;;;;;;3.03;0.80;;;15.10;99.90;;;;;;4968130;28;20042;-76
2023/10/22 13:22:26;;;;;;;3.30;0.80;;;15.00;99.90;;;;;;4980782;28;20085;-76
2023/10/22 13:25:12;;;;;;;2.47;0.77;;;15.00;99.90;;;;;;4977400;28;20109;-75
2023/10/22 13:27:58;;;;;;;2.40;0.90;;;14.90;99.90;;;;;;4968478;28;20089;-76
2023/10/22 13:30:44;;;;;;;2.40;0.80;;;14.80;99.90;;;;;;4979986;28;20042;-76
2023/10/22 13:33:30;;;;;;;2.53;0.90;;;14.80;99.90;;;;;;4970421;28;20120;-76
2023/10/22 13:36:16;;;;;;;4.03;1.10;;;14.70;99.90;;;;;;4947476;28;20066;-76
2023/10/22 13:39:08;;;;;;;3.80;1.00;;;14.70;99.90;;;;;;4967097;28;20058;-76
2023/10/22 13:41:54;;;;;;;3.17;1.00;;;14.80;99.90;;;;;;4926296;29;20066;-75
2023/10/22 13:44:40;;;;;;;3.85;1.00;;;14.60;99.90;;;;;;4941904;28;20453;-76
2023/10/22 13:47:27;;;;;;;4.88;1.10;;;14.60;99.90;;;;;;4955870;28;20042;-75
2023/10/22 13:50:14;;;;;;;6.20;1.02;;;14.60;99.90;;;;;;4964576;28;20039;-75
2023/10/22 13:53:02;;;;;;;2.65;1.10;;;14.60;99.90;;;;;;4933744;28;20038;-75
2023/10/22 13:55:56;;;;;;;3.93;0.90;;;14.50;99.90;;;;;;4945645;28;20047;-76
2023/10/22 13:58:42;;;;;;;3.45;0.90;;;14.50;99.90;;;;;;4944306;28;20262;-76
2023/10/22 14:01:28;;;;;;;3.92;0.80;;;14.50;99.90;;;;;;4959982;28;20149;-76
2023/10/22 14:04:14;;;;;;;5.13;1.15;;;14.40;99.90;;;;;;4959908;28;20047;-78
2023/10/22 14:07:00;;;;;;;2.22;0.75;;;14.40;99.90;;;;;;4960598;28;20039;-78
2023/10/22 14:09:46;;;;;;;1.52;0.60;;;14.30;99.90;;;;;;4956111;28;20047;-76
2023/10/22 14:12:32;;;;;;;3.30;1.00;;;14.30;99.90;;;;;;4943210;28;20039;-76
2023/10/22 14:15:20;;;;;;;3.75;0.95;;;14.30;99.90;;;;;;4952963;28;20062;-76
2023/10/22 14:18:08;;;;;;;5.35;0.98;;;14.30;99.90;;;;;;4928224;28;20046;-76
2023/10/22 14:20:54;;;;;;;3.35;0.80;;;14.20;99.90;;;;;;4956141;28;20038;-76
2023/10/22 14:23:41;;;;;;;3.25;0.80;;;14.20;99.90;;;;;;4957536;28;20126;-76
2023/10/22 14:26:31;;;;;;;2.87;0.97;;;14.20;99.90;;;;;;4932432;28;20038;-76
2023/10/22 14:29:18;;;;;;;1.80;0.60;;;14.20;99.90;;;;;;4957368;28;20089;-76
2023/10/22 14:32:04;;;;;;;2.47;0.60;;;14.20;99.90;;;;;;4942984;28;20391;-76